Time;durP1;ratioP1;P1;durP2;ratioP2;P2;SDS_P1;SDS_P2;PMS_P1;PMS_P2;Temp;Humidity;BMP_temperature;BMP_pressure;BME280_temperature;BME280_humidity;BME280_pressure;Samples;Min_cycle;Max_cycle;Signal;HPM_P1;HPM_P2
2023/06/08 00:02:04;;;;;;;10.15;9.85;;;19.20;99.90;;;;;;5043947;28;20240;-88
2023/06/08 00:04:32;;;;;;;10.27;9.98;;;19.20;99.90;;;;;;5042961;28;20266;-88
2023/06/08 00:07:03;;;;;;;10.40;10.10;;;19.10;99.90;;;;;;5043125;28;20227;-88
2023/06/08 00:09:31;;;;;;;10.40;10.10;;;19.10;99.90;;;;;;5043182;28;20291;-89
2023/06/08 00:12:03;;;;;;;10.10;9.80;;;19.00;99.90;;;;;;5042819;28;20223;-88
2023/06/08 00:14:31;;;;;;;10.05;9.75;;;18.90;99.90;;;;;;5046138;28;20238;-88
2023/06/08 00:17:02;;;;;;;10.25;9.95;;;18.90;99.90;;;;;;5059270;28;20204;-86
2023/06/08 00:19:30;;;;;;;10.23;9.93;;;18.90;99.90;;;;;;5059218;28;20219;-86
2023/06/08 00:22:04;;;;;;;10.15;9.85;;;18.80;99.90;;;;;;5049683;28;20235;-88
2023/06/08 00:24:41;;;;;;;10.50;10.20;;;18.80;99.90;;;;;;5043918;28;20255;-88
2023/06/08 00:27:12;;;;;;;10.32;10.02;;;18.80;99.90;;;;;;5044150;28;20231;-88
2023/06/08 00:29:40;;;;;;;10.50;10.20;;;18.70;99.90;;;;;;5050249;28;20295;-88
2023/06/08 00:32:15;;;;;;;10.65;10.35;;;18.60;99.90;;;;;;5051341;28;20334;-87
2023/06/08 00:34:44;;;;;;;10.70;10.40;;;18.60;99.90;;;;;;5051352;28;20231;-88
2023/06/08 00:37:14;;;;;;;10.45;10.15;;;18.50;99.90;;;;;;5053634;28;20219;-88
2023/06/08 00:39:45;;;;;;;10.73;10.43;;;18.50;99.90;;;;;;5045263;28;20228;-88
2023/06/08 00:42:15;;;;;;;10.68;10.38;;;18.40;99.90;;;;;;5044047;28;20287;-89
2023/06/08 00:44:43;;;;;;;10.80;10.50;;;18.40;99.90;;;;;;5043673;28;20243;-89
2023/06/08 00:47:12;;;;;;;10.70;10.40;;;18.40;99.90;;;;;;5045252;28;20218;-88
2023/06/08 00:49:41;;;;;;;10.40;10.10;;;18.30;99.90;;;;;;5045604;28;20330;-88
2023/06/08 00:52:10;;;;;;;10.60;10.30;;;18.30;99.90;;;;;;5043330;28;20236;-88
2023/06/08 00:54:40;;;;;;;10.90;10.60;;;18.20;99.90;;;;;;5042773;28;20231;-88
2023/06/08 00:57:11;;;;;;;10.80;10.50;;;18.20;99.90;;;;;;5042431;28;20224;-89
2023/06/08 00:59:42;;;;;;;10.80;10.50;;;18.10;99.90;;;;;;5042784;28;20223;-88
2023/06/08 01:02:10;;;;;;;10.80;10.50;;;18.10;99.90;;;;;;5042976;28;20258;-88
2023/06/08 01:04:40;;;;;;;10.80;10.50;;;18.00;99.90;;;;;;5042598;28;20265;-88
2023/06/08 01:07:19;;;;;;;10.70;10.40;;;18.00;99.90;;;;;;5051675;28;20219;-88
2023/06/08 01:12:50;;;;;;;10.60;10.30;;;17.90;99.90;;;;;;5039597;28;20301;-88
2023/06/08 01:15:28;;;;;;;10.60;10.30;;;17.90;99.90;;;;;;5042624;28;20223;-89
2023/06/08 01:18:04;;;;;;;10.50;10.20;;;17.90;99.90;;;;;;5042541;28;20232;-89
2023/06/08 01:20:53;;;;;;;10.70;10.40;;;17.80;99.90;;;;;;5042087;28;20289;-88
2023/06/08 01:23:44;;;;;;;10.50;10.20;;;17.80;99.90;;;;;;5042832;28;20240;-87
2023/06/08 01:26:20;;;;;;;10.60;10.30;;;17.80;99.90;;;;;;5042760;28;20219;-89
2023/06/08 01:28:51;;;;;;;10.48;10.18;;;17.80;99.90;;;;;;5042388;28;20282;-88
2023/06/08 01:31:26;;;;;;;10.70;10.40;;;17.80;99.90;;;;;;5043994;28;20234;-88
2023/06/08 01:33:57;;;;;;;10.38;10.07;;;17.70;99.90;;;;;;5045517;28;20243;-89
2023/06/08 01:36:43;;;;;;;10.27;9.98;;;17.70;99.90;;;;;;5045679;28;20239;-88
2023/06/08 01:39:21;;;;;;;10.43;10.13;;;17.60;99.90;;;;;;5045742;28;20278;-88
2023/06/08 01:42:00;;;;;;;10.50;10.20;;;17.60;99.90;;;;;;5045710;28;20235;-89
2023/06/08 01:44:30;;;;;;;10.30;10.00;;;17.60;99.90;;;;;;5045531;28;20258;-88
2023/06/08 01:47:01;;;;;;;10.23;9.93;;;17.60;99.90;;;;;;5027368;28;20255;-89
2023/06/08 01:49:36;;;;;;;10.23;9.93;;;17.60;99.90;;;;;;5026171;28;20259;-89
2023/06/08 01:52:16;;;;;;;10.00;9.70;;;17.60;99.90;;;;;;5025754;28;20227;-88
2023/06/08 01:54:44;;;;;;;10.35;10.05;;;17.50;99.90;;;;;;5025953;28;20242;-88
2023/06/08 01:57:22;;;;;;;10.48;10.18;;;17.50;99.90;;;;;;5027450;28;20236;-89
2023/06/08 01:59:52;;;;;;;10.35;10.05;;;17.50;99.90;;;;;;5041615;28;20289;-88
2023/06/08 02:02:22;;;;;;;10.50;10.20;;;17.50;99.90;;;;;;5032676;28;20225;-88
2023/06/08 02:04:51;;;;;;;10.50;10.20;;;17.50;99.90;;;;;;5026987;28;20256;-89
2023/06/08 02:07:21;;;;;;;10.32;10.02;;;17.50;99.90;;;;;;5026323;28;20232;-89
2023/06/08 02:09:52;;;;;;;10.50;10.20;;;17.50;99.90;;;;;;5036817;28;20247;-89
2023/06/08 02:12:22;;;;;;;10.40;10.10;;;17.40;99.90;;;;;;5047566;28;20278;-89
2023/06/08 02:14:50;;;;;;;10.75;10.45;;;17.50;99.90;;;;;;5050363;28;20245;-88
2023/06/08 02:17:25;;;;;;;10.60;10.30;;;17.40;99.90;;;;;;5050147;28;20228;-88
2023/06/08 02:19:58;;;;;;;10.30;10.00;;;17.40;99.90;;;;;;5055073;28;20231;-89
2023/06/08 02:22:28;;;;;;;10.50;10.20;;;17.40;99.90;;;;;;5046578;28;20253;-89
2023/06/08 02:24:57;;;;;;;10.60;10.30;;;17.50;99.90;;;;;;5046643;28;20223;-89
2023/06/08 02:27:36;;;;;;;10.68;10.38;;;17.40;99.90;;;;;;5053508;28;20220;-89
2023/06/08 02:30:07;;;;;;;10.65;10.35;;;17.50;99.90;;;;;;5059069;28;20246;-88
2023/06/08 02:32:35;;;;;;;10.80;10.50;;;17.50;99.90;;;;;;5061105;28;20215;-88
2023/06/08 02:35:05;;;;;;;10.70;10.40;;;17.50;99.90;;;;;;5062178;28;20234;-88
2023/06/08 02:37:33;;;;;;;10.73;10.43;;;17.50;99.90;;;;;;5062220;28;20227;-88
2023/06/08 02:40:04;;;;;;;10.38;10.07;;;17.40;99.90;;;;;;5062105;28;20236;-88
2023/06/08 02:45:18;;;;;;;10.10;9.80;;;17.50;99.90;;;;;;5061339;28;20235;-89
2023/06/08 02:47:49;;;;;;;10.40;10.10;;;17.40;99.90;;;;;;5061667;28;20247;-88
2023/06/08 02:50:22;;;;;;;10.70;10.40;;;17.40;99.90;;;;;;5061303;28;20204;-89
2023/06/08 02:52:50;;;;;;;10.95;10.65;;;17.50;99.90;;;;;;5046143;28;20740;-89
2023/06/08 02:55:18;;;;;;;10.77;10.48;;;17.50;99.90;;;;;;5044277;28;20232;-89
2023/06/08 02:57:58;;;;;;;11.13;10.82;;;17.50;99.90;;;;;;5044289;28;20232;-88
2023/06/08 03:00:35;;;;;;;10.75;10.45;;;17.50;99.90;;;;;;5044219;28;20227;-89
2023/06/08 03:03:02;;;;;;;11.13;10.82;;;17.50;99.90;;;;;;5044062;28;20317;-89
2023/06/08 03:05:34;;;;;;;10.80;10.50;;;17.50;99.90;;;;;;5044310;28;20228;-89
2023/06/08 03:08:02;;;;;;;10.85;10.55;;;17.50;99.90;;;;;;5043524;28;20242;-89
2023/06/08 03:10:31;;;;;;;11.00;10.70;;;17.50;99.90;;;;;;5043281;28;20223;-90
2023/06/08 03:13:09;;;;;;;10.95;10.65;;;17.50;99.90;;;;;;5043435;28;20242;-89
2023/06/08 03:15:41;;;;;;;10.93;10.63;;;17.50;99.90;;;;;;5043870;28;20231;-89
2023/06/08 03:18:09;;;;;;;10.90;10.60;;;17.50;99.90;;;;;;5045193;28;20276;-89
2023/06/08 03:20:37;;;;;;;10.88;10.57;;;17.50;99.90;;;;;;5054345;28;20211;-88
2023/06/08 03:23:07;;;;;;;10.70;10.40;;;17.50;99.90;;;;;;5059552;28;20247;-88
2023/06/08 03:25:36;;;;;;;10.50;10.20;;;17.50;99.90;;;;;;5056572;28;20239;-88
2023/06/08 03:28:14;;;;;;;10.48;10.18;;;17.50;99.90;;;;;;5053567;28;20241;-88
2023/06/08 03:30:44;;;;;;;10.30;10.00;;;17.40;99.90;;;;;;5048619;28;20263;-89
2023/06/08 03:33:16;;;;;;;10.45;10.15;;;17.50;99.90;;;;;;5060692;28;20251;-87
2023/06/08 03:35:44;;;;;;;10.60;10.30;;;17.50;99.90;;;;;;5058029;28;20306;-89
2023/06/08 03:38:12;;;;;;;10.30;10.00;;;17.50;99.90;;;;;;5045021;28;20234;-89
2023/06/08 03:40:41;;;;;;;10.40;10.10;;;17.50;99.90;;;;;;5044507;28;20251;-89
2023/06/08 03:43:30;;;;;;;10.45;10.15;;;17.60;99.90;;;;;;5044304;28;20243;-89
2023/06/08 03:45:58;;;;;;;10.20;9.90;;;17.50;99.90;;;;;;5044053;28;20227;-89
2023/06/08 03:48:29;;;;;;;10.30;10.00;;;17.60;99.90;;;;;;5043870;28;20251;-89
2023/06/08 03:50:57;;;;;;;10.50;10.20;;;17.60;99.90;;;;;;5042780;28;20326;-89
2023/06/08 03:53:26;;;;;;;10.20;9.90;;;17.60;99.90;;;;;;5042517;28;20793;-89
2023/06/08 03:55:57;;;;;;;10.38;10.07;;;17.70;99.90;;;;;;5043301;28;20266;-89
2023/06/08 03:58:29;;;;;;;10.10;9.80;;;17.70;99.90;;;;;;5043227;28;20229;-90
2023/06/08 04:00:57;;;;;;;10.45;10.15;;;17.70;99.90;;;;;;5042951;28;20235;-89
2023/06/08 04:03:36;;;;;;;10.23;9.93;;;17.70;99.90;;;;;;5042893;28;20254;-89
2023/06/08 04:06:05;;;;;;;10.20;9.90;;;17.80;99.90;;;;;;5042741;28;20241;-89
2023/06/08 04:08:33;;;;;;;10.20;9.90;;;17.80;99.90;;;;;;5043019;28;20279;-89
2023/06/08 04:11:03;;;;;;;10.35;10.05;;;17.80;99.90;;;;;;5042948;28;20238;-90
2023/06/08 04:13:34;;;;;;;10.20;9.90;;;17.90;99.90;;;;;;5042235;28;20235;-89
2023/06/08 04:16:08;;;;;;;10.45;10.15;;;18.00;99.90;;;;;;5043030;28;20330;-89
2023/06/08 05:42:49;;;;;;;9.30;9.00;;;19.80;99.90;;;;;;2632581;22;20486;-84
2023/06/08 05:45:16;;;;;;;8.82;8.63;;;19.80;99.90;;;;;;5043539;28;20317;-81
2023/06/08 05:47:45;;;;;;;9.40;9.10;;;19.80;99.90;;;;;;5045622;28;20235;-81
2023/06/08 05:50:14;;;;;;;9.55;9.25;;;19.90;99.90;;;;;;5048667;28;20282;-81
2023/06/08 05:52:44;;;;;;;9.50;9.20;;;19.90;99.90;;;;;;5048573;28;20227;-81
2023/06/08 05:55:13;;;;;;;9.25;8.95;;;19.90;99.90;;;;;;5029558;28;20244;-81
2023/06/08 05:57:42;;;;;;;9.40;9.10;;;20.00;99.90;;;;;;5027475;28;20228;-82
2023/06/08 06:00:22;;;;;;;9.13;8.88;;;20.10;99.90;;;;;;5026909;28;20231;-82
2023/06/08 06:02:50;;;;;;;9.10;8.90;;;20.20;99.90;;;;;;5025894;28;20242;-82
2023/06/08 06:05:20;;;;;;;9.27;8.98;;;20.20;99.90;;;;;;5026282;28;20310;-83
2023/06/08 06:07:50;;;;;;;9.38;9.07;;;20.10;99.90;;;;;;5025655;28;20221;-83
2023/06/08 06:10:19;;;;;;;9.30;9.00;;;20.20;99.90;;;;;;5025730;28;20219;-83
2023/06/08 06:12:48;;;;;;;9.00;8.80;;;20.10;99.90;;;;;;5024677;28;20287;-82
2023/06/08 06:15:22;;;;;;;9.60;9.30;;;20.20;99.90;;;;;;5024413;28;20421;-82
2023/06/08 06:17:50;;;;;;;9.30;9.00;;;20.30;99.90;;;;;;5024582;28;20238;-82
2023/06/08 06:20:18;;;;;;;9.23;8.93;;;20.20;99.90;;;;;;5025647;28;20369;-83
2023/06/08 06:22:47;;;;;;;9.07;8.85;;;20.20;99.90;;;;;;5024695;28;20240;-83
2023/06/08 06:25:17;;;;;;;9.30;9.00;;;20.30;99.90;;;;;;5024572;28;20304;-82
2023/06/08 06:27:55;;;;;;;9.23;8.93;;;20.30;99.90;;;;;;5027912;28;20216;-81
2023/06/08 06:30:35;;;;;;;9.27;8.98;;;20.40;99.90;;;;;;5025512;28;20212;-81
2023/06/08 06:33:04;;;;;;;9.55;9.25;;;20.40;99.90;;;;;;5026905;28;20256;-81
2023/06/08 06:35:33;;;;;;;9.40;9.10;;;20.50;99.90;;;;;;5025325;28;20263;-82
2023/06/08 06:38:02;;;;;;;9.40;9.10;;;20.60;99.90;;;;;;5017967;28;20216;-81
2023/06/08 06:40:31;;;;;;;9.65;9.35;;;20.70;99.90;;;;;;5025303;28;20240;-82
2023/06/08 06:43:02;;;;;;;9.40;9.10;;;20.80;99.90;;;;;;5026583;28;20243;-82
2023/06/08 06:45:33;;;;;;;9.60;9.30;;;20.80;99.90;;;;;;5026525;28;20247;-82
2023/06/08 06:48:02;;;;;;;9.50;9.20;;;20.80;99.90;;;;;;5019659;28;20236;-82
2023/06/08 06:50:31;;;;;;;9.40;9.10;;;20.90;99.90;;;;;;5027622;28;20229;-82
2023/06/08 06:52:58;;;;;;;9.77;9.48;;;21.00;99.90;;;;;;5026631;28;20236;-82
2023/06/08 07:03:16;;;;;;;9.55;9.25;;;21.10;99.90;;;;;;5004422;28;20231;-80
2023/06/08 07:05:45;;;;;;;9.93;9.63;;;21.10;99.90;;;;;;5017124;28;20209;-83
2023/06/08 07:08:12;;;;;;;9.55;9.25;;;21.20;99.90;;;;;;5021431;28;20334;-82
2023/06/08 07:10:42;;;;;;;9.60;9.30;;;21.20;99.90;;;;;;5014722;28;20217;-81
2023/06/08 07:13:11;;;;;;;9.50;9.20;;;21.20;99.90;;;;;;5010374;28;20241;-82
2023/06/08 07:15:41;;;;;;;9.70;9.40;;;21.20;99.90;;;;;;5016836;28;20297;-82
2023/06/08 07:18:11;;;;;;;9.60;9.30;;;21.30;99.90;;;;;;5022084;28;20217;-84
2023/06/08 07:20:42;;;;;;;9.93;9.63;;;21.40;99.90;;;;;;5021718;28;20240;-82
2023/06/08 07:23:10;;;;;;;9.55;9.25;;;21.50;99.90;;;;;;5021419;28;20217;-84
2023/06/08 07:25:39;;;;;;;9.57;9.27;;;21.60;99.90;;;;;;5021312;28;20233;-81
2023/06/08 07:28:08;;;;;;;9.60;9.30;;;21.80;99.90;;;;;;5019175;28;20244;-81
2023/06/08 07:30:38;;;;;;;9.77;9.48;;;21.90;99.90;;;;;;5014699;28;20229;-83
2023/06/08 07:33:07;;;;;;;9.65;9.35;;;22.00;99.90;;;;;;5011069;28;20232;-81
2023/06/08 07:35:36;;;;;;;9.60;9.30;;;22.20;99.90;;;;;;5010744;28;20237;-84
2023/06/08 07:38:42;;;;;;;9.80;9.50;;;22.40;99.90;;;;;;5009617;28;20244;-82
2023/06/08 07:43:57;;;;;;;9.60;9.30;;;22.90;99.90;;;;;;5003656;28;20240;-82
2023/06/08 07:46:27;;;;;;;9.35;9.05;;;23.10;99.90;;;;;;5009934;28;20233;-84
2023/06/08 07:48:57;;;;;;;9.38;9.07;;;23.20;99.90;;;;;;5009469;28;20287;-83
2023/06/08 07:51:26;;;;;;;9.55;9.25;;;23.30;99.90;;;;;;5005958;28;20236;-82
2023/06/08 07:54:05;;;;;;;9.70;9.40;;;23.50;99.90;;;;;;5006077;28;20235;-82
2023/06/08 07:56:34;;;;;;;9.90;9.60;;;23.70;99.90;;;;;;5005410;28;20240;-81
2023/06/08 07:59:03;;;;;;;9.90;9.60;;;23.90;99.90;;;;;;5007088;28;20221;-81
2023/06/08 08:01:32;;;;;;;9.80;9.50;;;23.90;99.90;;;;;;5006332;28;20213;-82
2023/06/08 08:04:02;;;;;;;9.60;9.30;;;24.00;99.90;;;;;;5003965;28;20264;-82
2023/06/08 08:06:32;;;;;;;9.30;9.00;;;24.10;99.90;;;;;;5005059;28;20224;-83
2023/06/08 08:11:47;;;;;;;9.20;8.90;;;24.30;99.90;;;;;;4999668;28;20236;-82
2023/06/08 08:14:19;;;;;;;9.23;8.93;;;24.50;99.90;;;;;;5003642;28;20324;-82
2023/06/08 08:16:50;;;;;;;9.32;9.02;;;24.50;99.90;;;;;;5003975;28;20237;-82
2023/06/08 08:19:18;;;;;;;9.10;8.88;;;24.70;99.90;;;;;;5003849;28;20257;-82
2023/06/08 08:21:47;;;;;;;9.10;8.90;;;24.90;99.90;;;;;;5004784;28;20331;-82
2023/06/08 08:24:19;;;;;;;9.32;9.02;;;24.80;99.90;;;;;;5003525;28;20264;-82
2023/06/08 08:26:47;;;;;;;9.38;9.07;;;25.10;99.90;;;;;;5003916;28;20264;-80
2023/06/08 08:29:15;;;;;;;9.90;9.60;;;25.40;99.90;;;;;;5003514;28;20240;-82
2023/06/08 08:31:45;;;;;;;9.70;9.40;;;25.50;99.90;;;;;;5003993;28;20229;-82
2023/06/08 08:34:14;;;;;;;9.45;9.15;;;25.70;99.90;;;;;;5003498;28;20350;-81
2023/06/08 08:36:46;;;;;;;9.43;9.13;;;25.90;99.90;;;;;;5003275;28;20268;-81
2023/06/08 08:39:22;;;;;;;9.40;9.10;;;25.90;99.90;;;;;;5004133;28;20232;-82
2023/06/08 08:42:01;;;;;;;9.50;9.20;;;26.10;99.90;;;;;;5004266;28;20303;-82
2023/06/08 08:44:31;;;;;;;9.60;9.30;;;26.30;99.90;;;;;;5003939;28;20249;-82
2023/06/08 08:47:02;;;;;;;9.00;8.80;;;26.40;99.90;;;;;;5004263;28;20261;-82
2023/06/08 08:49:40;;;;;;;9.35;9.05;;;26.10;99.90;;;;;;5003771;28;20272;-82
2023/06/08 08:52:10;;;;;;;9.50;9.20;;;26.40;99.90;;;;;;5004177;28;20228;-83
2023/06/08 08:54:55;;;;;;;9.68;9.38;;;26.70;99.90;;;;;;5004325;28;20229;-83
2023/06/08 08:57:24;;;;;;;9.90;9.60;;;26.80;99.90;;;;;;5004053;28;20220;-83
2023/06/08 08:59:53;;;;;;;9.70;9.40;;;26.80;99.90;;;;;;5004244;28;20224;-84
2023/06/08 09:02:23;;;;;;;9.80;9.50;;;26.60;99.90;;;;;;5003410;28;20232;-84
2023/06/08 09:04:53;;;;;;;9.70;9.40;;;26.30;99.90;;;;;;5003617;28;20237;-81
2023/06/08 09:07:24;;;;;;;9.43;9.13;;;26.30;99.90;;;;;;5006609;28;20232;-83
2023/06/08 09:10:29;;;;;;;10.00;9.70;;;26.40;99.90;;;;;;5007079;28;20236;-83
2023/06/08 09:12:57;;;;;;;9.70;9.40;;;26.50;99.90;;;;;;5007188;28;20276;-82
2023/06/08 09:15:37;;;;;;;9.68;9.38;;;26.80;99.90;;;;;;5006491;28;20264;-82
2023/06/08 09:18:21;;;;;;;9.80;9.50;;;27.20;99.90;;;;;;5007109;28;20236;-82
2023/06/08 09:20:51;;;;;;;10.00;9.70;;;27.40;99.90;;;;;;5006898;28;20243;-82
2023/06/08 09:23:24;;;;;;;9.90;9.60;;;27.50;99.90;;;;;;5010010;28;20229;-83
2023/06/08 09:26:00;;;;;;;9.48;9.18;;;27.20;99.90;;;;;;5006822;28;20229;-83
2023/06/08 09:28:29;;;;;;;9.60;9.30;;;26.90;99.90;;;;;;5007165;28;20300;-83
2023/06/08 09:30:59;;;;;;;9.65;9.35;;;26.60;99.90;;;;;;5007022;28;20244;-82
2023/06/08 09:33:29;;;;;;;9.60;9.30;;;26.60;99.90;;;;;;5006965;28;20292;-82
2023/06/08 09:36:15;;;;;;;9.80;9.50;;;26.60;99.90;;;;;;5006778;28;20333;-83
2023/06/08 09:38:45;;;;;;;9.57;9.27;;;26.40;99.90;;;;;;5007152;28;20307;-82
2023/06/08 09:41:21;;;;;;;9.57;9.27;;;26.00;99.90;;;;;;5006629;28;20240;-82
2023/06/08 09:43:52;;;;;;;9.70;9.40;;;25.90;99.90;;;;;;5008976;28;20229;-82
2023/06/08 09:46:38;;;;;;;9.70;9.40;;;25.60;99.90;;;;;;5008826;28;20233;-82
2023/06/08 09:49:08;;;;;;;9.40;9.10;;;25.50;99.90;;;;;;5009245;28;20240;-82
2023/06/08 09:51:38;;;;;;;9.20;8.90;;;25.60;99.90;;;;;;5011919;28;20209;-81
2023/06/08 09:54:14;;;;;;;9.00;8.80;;;25.50;99.90;;;;;;5016498;28;20253;-82
2023/06/08 09:56:57;;;;;;;9.00;8.80;;;25.40;99.90;;;;;;5017958;28;20291;-84
2023/06/08 09:59:39;;;;;;;9.30;9.00;;;25.30;99.90;;;;;;5018903;28;20260;-83
2023/06/08 10:02:37;;;;;;;9.40;9.10;;;25.10;99.90;;;;;;5017962;28;20217;-83
2023/06/08 10:05:15;;;;;;;8.90;8.70;;;24.80;99.90;;;;;;5018687;28;20231;-83
2023/06/08 10:07:52;;;;;;;9.05;8.85;;;24.70;99.90;;;;;;5019457;28;20322;-84
2023/06/08 10:10:23;;;;;;;9.40;9.10;;;24.50;99.90;;;;;;5018497;28;20240;-82
2023/06/08 10:13:01;;;;;;;9.43;9.13;;;24.30;99.90;;;;;;5021134;28;20232;-84
2023/06/08 10:15:31;;;;;;;9.40;9.10;;;24.00;99.90;;;;;;5021974;28;20252;-82
2023/06/08 10:18:00;;;;;;;9.63;9.32;;;23.70;99.90;;;;;;5021204;28;20240;-82
2023/06/08 10:20:31;;;;;;;9.77;9.48;;;23.40;99.90;;;;;;5014236;28;20228;-82
2023/06/08 10:23:00;;;;;;;9.70;9.40;;;23.30;99.90;;;;;;5016574;28;20244;-82
2023/06/08 10:25:30;;;;;;;9.38;9.07;;;23.20;99.90;;;;;;5014540;28;20213;-82
2023/06/08 10:28:07;;;;;;;9.65;9.35;;;23.30;99.90;;;;;;5016530;28;21125;-83
2023/06/08 10:30:45;;;;;;;9.50;9.20;;;23.50;99.90;;;;;;5013358;28;20216;-83
2023/06/08 10:33:15;;;;;;;9.32;9.02;;;23.60;99.90;;;;;;5011377;28;20256;-84
2023/06/08 10:36:13;;;;;;;9.63;9.32;;;23.90;99.90;;;;;;5011676;28;20268;-83
2023/06/08 10:38:59;;;;;;;9.60;9.30;;;24.10;99.90;;;;;;5009424;28;20240;-84
2023/06/08 10:41:57;;;;;;;9.60;9.30;;;24.40;99.90;;;;;;5010343;28;20304;-82
2023/06/08 10:44:32;;;;;;;9.60;9.30;;;24.80;99.90;;;;;;5009858;28;20255;-82
2023/06/08 10:47:02;;;;;;;9.80;9.50;;;25.10;99.90;;;;;;5009822;28;20221;-83
2023/06/08 10:49:32;;;;;;;10.05;9.75;;;25.40;99.90;;;;;;5010531;28;20229;-83
2023/06/08 10:52:11;;;;;;;9.70;9.40;;;25.40;99.90;;;;;;5011326;28;20241;-82
2023/06/08 10:54:56;;;;;;;9.82;9.52;;;25.50;99.90;;;;;;5010572;28;20281;-82
2023/06/08 10:57:45;;;;;;;10.18;9.88;;;25.50;99.90;;;;;;5009802;28;20232;-82
2023/06/08 11:00:52;;;;;;;9.80;9.50;;;25.40;99.90;;;;;;5010588;28;20233;-82
2023/06/08 11:03:25;;;;;;;9.70;9.40;;;25.70;99.90;;;;;;5018154;28;20255;-82
2023/06/08 11:05:55;;;;;;;9.88;9.57;;;25.90;99.90;;;;;;5015359;28;20228;-85
2023/06/08 11:08:24;;;;;;;9.73;9.43;;;25.90;99.90;;;;;;5015757;28;20225;-83
2023/06/08 11:10:57;;;;;;;9.73;9.43;;;26.10;99.90;;;;;;5013825;28;20221;-83
2023/06/08 11:13:32;;;;;;;9.90;9.60;;;26.10;99.90;;;;;;5013614;28;20264;-83
2023/06/08 11:16:12;;;;;;;10.20;9.90;;;26.30;99.90;;;;;;5014950;28;20235;-83
2023/06/08 11:18:41;;;;;;;10.00;9.70;;;26.80;99.90;;;;;;5013750;28;20229;-83
2023/06/08 11:21:12;;;;;;;10.30;10.00;;;26.80;99.90;;;;;;5012164;28;20256;-83
2023/06/08 11:23:48;;;;;;;9.70;9.40;;;26.80;99.90;;;;;;5013359;28;20247;-82
2023/06/08 11:26:17;;;;;;;9.73;9.43;;;26.70;99.90;;;;;;5009392;28;20217;-82
2023/06/08 11:28:46;;;;;;;9.93;9.63;;;26.50;99.90;;;;;;5013277;28;20229;-83
2023/06/08 11:31:18;;;;;;;9.90;9.60;;;26.30;99.90;;;;;;5010538;28;20236;-80
2023/06/08 11:33:50;;;;;;;9.77;9.48;;;26.30;99.90;;;;;;5008970;28;20315;-80
2023/06/08 11:36:23;;;;;;;10.07;9.77;;;26.50;99.90;;;;;;5009050;28;20236;-82
2023/06/08 11:38:52;;;;;;;10.30;10.00;;;26.60;99.90;;;;;;5009052;28;20296;-82
2023/06/08 11:41:22;;;;;;;10.20;9.90;;;26.50;99.90;;;;;;5011422;28;20209;-82
2023/06/08 11:43:52;;;;;;;10.23;9.93;;;26.30;99.90;;;;;;5056692;22;20234;-87
2023/06/08 11:46:43;;;;;;;9.82;9.52;;;26.20;99.90;;;;;;5049582;28;20231;-91
2023/06/08 11:49:22;;;;;;;9.90;9.60;;;26.20;99.90;;;;;;5042181;28;20223;-88
2023/06/08 11:51:57;;;;;;;9.80;9.50;;;26.30;99.90;;;;;;5050541;28;20227;-88
2023/06/08 11:54:36;;;;;;;10.23;9.93;;;26.10;99.90;;;;;;5052657;28;20317;-89
2023/06/08 11:57:12;;;;;;;10.10;9.80;;;25.90;99.90;;;;;;5046605;28;20236;-88
2023/06/08 11:59:51;;;;;;;10.20;9.90;;;25.80;99.90;;;;;;5045284;28;20246;-88
2023/06/08 12:05:28;;;;;;;10.27;9.98;;;25.60;99.90;;;;;;5043325;28;20219;-89
2023/06/08 12:08:02;;;;;;;9.73;9.43;;;25.60;99.90;;;;;;5045066;28;20289;-90
2023/06/08 12:10:41;;;;;;;9.77;9.48;;;25.50;99.90;;;;;;5045189;28;20223;-89
2023/06/08 12:13:19;;;;;;;10.10;9.80;;;25.70;99.90;;;;;;5045832;28;20230;-90
2023/06/08 12:16:10;;;;;;;10.00;9.70;;;25.90;99.90;;;;;;5043666;28;20232;-90
2023/06/08 12:19:03;;;;;;;10.10;9.80;;;26.10;99.90;;;;;;5032729;28;20231;-90
2023/06/08 12:21:33;;;;;;;9.77;9.48;;;26.00;99.90;;;;;;5037489;28;20255;-89
2023/06/08 12:24:02;;;;;;;9.90;9.60;;;25.90;99.90;;;;;;5038697;28;20228;-88
2023/06/08 12:26:31;;;;;;;9.98;9.68;;;25.90;99.90;;;;;;5033741;28;20290;-87
2023/06/08 12:29:10;;;;;;;9.90;9.60;;;25.90;99.90;;;;;;5049949;28;20227;-88
2023/06/08 12:31:42;;;;;;;10.00;9.70;;;26.00;99.90;;;;;;5046315;28;20219;-89
2023/06/08 12:34:38;;;;;;;9.88;9.57;;;26.20;99.90;;;;;;5046956;28;20299;-88
2023/06/08 12:40:00;;;;;;;9.90;9.60;;;26.70;99.90;;;;;;5047164;28;20223;-87
2023/06/08 12:42:31;;;;;;;9.77;9.48;;;26.90;99.90;;;;;;5046047;28;20313;-87
2023/06/08 12:44:59;;;;;;;9.70;9.40;;;26.90;99.90;;;;;;5045626;28;20250;-87
2023/06/08 12:47:28;;;;;;;10.13;9.82;;;27.10;99.90;;;;;;5046989;28;20227;-87
2023/06/08 12:50:22;;;;;;;10.00;9.70;;;27.20;99.90;;;;;;5050768;28;20207;-87
2023/06/08 12:52:53;;;;;;;10.20;9.90;;;27.20;99.90;;;;;;5067321;28;20222;-87
2023/06/08 12:55:24;;;;;;;9.65;9.35;;;27.60;99.90;;;;;;5068559;28;20237;-86
2023/06/08 13:00:59;;;;;;;9.60;9.30;;;28.40;99.90;;;;;;5058372;28;20207;-89
2023/06/08 13:03:31;;;;;;;9.57;9.27;;;28.50;99.90;;;;;;5052487;28;20223;-84
2023/06/08 13:06:16;;;;;;;9.60;9.30;;;28.50;99.90;;;;;;5046136;28;20224;-87
2023/06/08 13:08:56;;;;;;;9.60;9.30;;;28.60;99.90;;;;;;5045994;28;20257;-88
2023/06/08 13:11:32;;;;;;;9.60;9.30;;;28.90;99.90;;;;;;5046800;28;20215;-86
2023/06/08 13:14:00;;;;;;;10.05;9.75;;;29.10;99.90;;;;;;5046657;28;20245;-86
2023/06/08 13:16:28;;;;;;;9.90;9.60;;;29.30;99.90;;;;;;5044730;28;20235;-86
2023/06/08 13:18:58;;;;;;;9.50;9.20;;;29.20;99.90;;;;;;5045380;28;20235;-86
2023/06/08 13:21:37;;;;;;;9.50;9.20;;;29.20;99.90;;;;;;5047127;28;20238;-87
2023/06/08 13:24:16;;;;;;;9.60;9.30;;;29.30;99.90;;;;;;5045933;28;20234;-89
2023/06/08 13:26:47;;;;;;;9.85;9.55;;;28.90;99.90;;;;;;5046763;28;20258;-89
2023/06/08 13:29:15;;;;;;;9.85;9.55;;;28.50;99.90;;;;;;5049879;28;20243;-88
2023/06/08 13:31:47;;;;;;;10.20;9.90;;;28.00;99.90;;;;;;5051080;28;20250;-87
2023/06/08 13:34:15;;;;;;;10.15;9.85;;;27.50;99.90;;;;;;5048654;28;21072;-88
2023/06/08 13:36:50;;;;;;;10.20;9.90;;;27.10;99.90;;;;;;5066207;28;20293;-87
2023/06/08 13:39:22;;;;;;;10.07;9.77;;;26.00;99.90;;;;;;5069121;28;20230;-87
2023/06/08 13:44:37;;;;;;;10.77;10.48;;;23.10;99.90;;;;;;5050281;28;20227;-87
2023/06/08 13:47:08;;;;;;;10.90;10.60;;;22.40;99.90;;;;;;5050469;28;20322;-87
2023/06/08 13:49:37;;;;;;;10.95;10.65;;;22.00;99.90;;;;;;5049136;28;20297;-88
2023/06/08 13:52:13;;;;;;;11.32;11.02;;;21.60;99.90;;;;;;5048717;28;20223;-86
2023/06/08 13:54:43;;;;;;;11.18;10.88;;;21.30;99.90;;;;;;5048160;28;20223;-87
2023/06/08 14:00:08;;;;;;;11.80;11.40;;;20.40;99.90;;;;;;5046278;28;20230;-86
2023/06/08 14:02:39;;;;;;;11.95;11.55;;;19.50;99.90;;;;;;5049949;28;20223;-87
2023/06/08 14:05:17;;;;;;;11.70;11.30;;;18.70;99.90;;;;;;5046532;28;20231;-86
2023/06/08 14:07:54;;;;;;;10.98;10.68;;;18.30;99.90;;;;;;5045954;28;20235;-88
2023/06/08 14:10:39;;;;;;;11.00;10.70;;;18.10;99.90;;;;;;5046181;28;20281;-87
2023/06/08 14:13:16;;;;;;;10.00;9.70;;;18.00;99.90;;;;;;5046058;28;20231;-86
2023/06/08 14:15:44;;;;;;;9.70;9.40;;;18.10;99.90;;;;;;5044156;28;20242;-86
2023/06/08 14:18:12;;;;;;;10.00;9.70;;;18.20;99.90;;;;;;5046049;28;20262;-86
2023/06/08 14:20:41;;;;;;;9.80;9.50;;;18.20;99.90;;;;;;5046075;28;20243;-88
2023/06/08 14:23:13;;;;;;;9.77;9.48;;;18.10;99.90;;;;;;5045919;28;20233;-86
2023/06/08 14:25:41;;;;;;;9.45;9.15;;;17.90;99.90;;;;;;5046425;28;20216;-86
2023/06/08 14:28:36;;;;;;;9.52;9.23;;;17.70;99.90;;;;;;5046735;28;20231;-86
2023/06/08 14:31:08;;;;;;;9.18;8.88;;;17.50;99.90;;;;;;5046218;28;20231;-87
2023/06/08 14:33:43;;;;;;;9.30;9.00;;;17.30;99.90;;;;;;5046608;28;20227;-86
2023/06/08 14:36:13;;;;;;;9.30;9.00;;;17.10;99.90;;;;;;5046084;28;20215;-87
2023/06/08 14:39:06;;;;;;;9.20;8.90;;;17.00;99.90;;;;;;5048265;28;20251;-87
2023/06/08 14:41:40;;;;;;;8.68;8.48;;;17.00;99.90;;;;;;5049722;28;20242;-87
2023/06/08 14:44:09;;;;;;;8.70;8.50;;;17.00;99.90;;;;;;5045571;28;20235;-89
2023/06/08 14:46:48;;;;;;;8.25;8.05;;;17.00;99.90;;;;;;5045606;28;20234;-85
2023/06/08 14:49:17;;;;;;;7.90;7.70;;;17.00;99.90;;;;;;5045914;28;20227;-86
2023/06/08 14:51:45;;;;;;;7.70;7.50;;;17.00;99.90;;;;;;5046466;28;20243;-87
2023/06/08 14:54:17;;;;;;;7.75;7.55;;;17.10;99.90;;;;;;5053700;28;20231;-87
2023/06/08 14:56:44;;;;;;;7.45;7.25;;;17.10;99.90;;;;;;5047004;28;20220;-86
2023/06/08 14:59:12;;;;;;;7.50;7.30;;;17.10;99.90;;;;;;5042784;28;20235;-86
2023/06/08 15:01:42;;;;;;;7.30;7.10;;;17.10;99.90;;;;;;5046197;28;20275;-86
2023/06/08 15:04:15;;;;;;;7.40;7.20;;;17.10;99.90;;;;;;5046159;28;20321;-87
2023/06/08 15:06:46;;;;;;;6.97;6.78;;;17.10;99.90;;;;;;5046546;28;20216;-87
2023/06/08 15:09:21;;;;;;;7.10;6.90;;;17.10;99.90;;;;;;5047003;28;20227;-88